Terminal Aerodrome Forecast
Issued by NWS

Home | Current Version | Previous Version | Text Only | Print | Product List | Glossary On
Versions: 1 2 3 4 5 6 7 8 9 10 11 12 13 14 15 16 17
000
FTAK31 PAJN 031127
TAFAJN
TAF
PAJN 031127Z 0312/0412 VRB02KT P6SM FEW100
     FM031800 24007KT P6SM SKC
     FM040300 VRB03KT P6SM BKN220
     FM041100 09006KT P6SM OVC090=

USA.gov is the U.S. government's official web portal to all federal, state and local government web resources and services.